Time;durP1;ratioP1;P1;durP2;ratioP2;P2;SDS_P1;SDS_P2;PMS_P1;PMS_P2;Temp;Humidity;BMP_temperature;BMP_pressure;BME280_temperature;BME280_humidity;BME280_pressure;Samples;Min_cycle;Max_cycle;Signal;HPM_P1;HPM_P2
2021/10/14 00:01:52;;;;;;;;;;;;;;;4.13;78.03;97495.25;5073866;28;20030;-79
2021/10/14 00:04:18;;;;;;;;;;;;;;;4.12;77.87;97499.66;5074123;28;19958;-80
2021/10/14 00:06:45;;;;;;;;;;;;;;;4.11;77.38;97495.41;5073787;28;20358;-80
2021/10/14 00:09:14;;;;;;;;;;;;;;;4.11;77.29;97499.78;5073621;28;19960;-80
2021/10/14 00:11:40;;;;;;;;;;;;;;;4.10;77.67;97496.38;5059257;28;19951;-79
2021/10/14 00:14:06;;;;;;;;;;;;;;;4.08;77.63;97490.53;5073828;28;19954;-79
2021/10/14 00:16:32;;;;;;;;;;;;;;;4.06;77.79;97493.25;5060692;28;19954;-79
2021/10/14 00:18:59;;;;;;;;;;;;;;;4.06;77.96;97495.06;5073672;28;19950;-80
2021/10/14 00:21:25;;;;;;;;;;;;;;;4.03;77.91;97488.38;5073815;28;19961;-80
2021/10/14 00:23:51;;;;;;;;;;;;;;;4.02;77.65;97485.94;5073635;28;20399;-81
2021/10/14 00:26:17;;;;;;;;;;;;;;;4.00;77.46;97487.88;5073293;28;20048;-81
2021/10/14 00:28:42;;;;;;;;;;;;;;;3.98;77.93;97488.00;5073411;28;20008;-81
2021/10/14 00:31:08;;;;;;;;;;;;;;;3.96;77.67;97495.13;5073288;28;20007;-81
2021/10/14 00:33:34;;;;;;;;;;;;;;;3.93;78.11;97485.06;5073633;28;19946;-80
2021/10/14 00:36:00;;;;;;;;;;;;;;;3.91;77.77;97487.00;5073374;28;19982;-79
2021/10/14 00:38:26;;;;;;;;;;;;;;;3.89;77.80;97486.31;5073469;28;20319;-78
2021/10/14 00:40:52;;;;;;;;;;;;;;;3.88;77.75;97483.88;5073253;28;19994;-78
2021/10/14 00:43:18;;;;;;;;;;;;;;;3.85;77.74;97482.41;5073425;28;19953;-78
2021/10/14 00:45:44;;;;;;;;;;;;;;;3.83;78.18;97486.91;5073342;28;19959;-79
2021/10/14 00:48:10;;;;;;;;;;;;;;;3.79;78.12;97481.22;5073144;28;19979;-79
2021/10/14 00:50:35;;;;;;;;;;;;;;;3.78;78.35;97482.19;5073479;28;19963;-79
2021/10/14 00:53:02;;;;;;;;;;;;;;;3.77;78.56;97483.13;5076913;28;20430;-79
2021/10/14 00:55:28;;;;;;;;;;;;;;;3.75;78.37;97487.66;5075895;28;19963;-79
2021/10/14 00:57:54;;;;;;;;;;;;;;;3.75;78.16;97485.06;5077263;28;19958;-79
2021/10/14 01:00:20;;;;;;;;;;;;;;;3.74;78.11;97483.44;5077237;28;19956;-80
2021/10/14 01:02:46;;;;;;;;;;;;;;;3.73;77.96;97475.81;5077192;28;19956;-79
2021/10/14 01:05:12;;;;;;;;;;;;;;;3.73;78.31;97484.41;5076993;28;19971;-79
2021/10/14 01:07:38;;;;;;;;;;;;;;;3.70;78.44;97474.31;5076750;28;20325;-79
2021/10/14 01:10:04;;;;;;;;;;;;;;;3.69;78.43;97472.69;5077033;28;19953;-79
2021/10/14 01:12:31;;;;;;;;;;;;;;;3.66;78.98;97479.00;5076657;28;19954;-79
2021/10/14 01:14:57;;;;;;;;;;;;;;;3.65;78.91;97477.38;5076901;28;20052;-79
2021/10/14 01:17:23;;;;;;;;;;;;;;;3.66;78.68;97478.19;5076866;28;20435;-79
2021/10/14 01:19:49;;;;;;;;;;;;;;;3.64;78.25;97480.91;5077167;28;19963;-79
2021/10/14 01:22:15;;;;;;;;;;;;;;;3.65;78.02;97481.72;5076727;28;19963;-79
2021/10/14 01:24:41;;;;;;;;;;;;;;;3.60;77.80;97479.59;5076822;28;20043;-79
2021/10/14 01:27:08;;;;;;;;;;;;;;;3.61;78.25;97481.22;5076583;28;19973;-79
2021/10/14 01:29:35;;;;;;;;;;;;;;;3.63;78.25;97483.66;5076377;28;19954;-79
2021/10/14 01:32:04;;;;;;;;;;;;;;;3.62;78.23;97476.84;5076654;28;19954;-79
2021/10/14 01:34:31;;;;;;;;;;;;;;;3.60;78.12;97471.00;5076461;28;19949;-79
2021/10/14 01:36:57;;;;;;;;;;;;;;;3.60;77.81;97476.19;5076711;28;19947;-79
2021/10/14 01:39:22;;;;;;;;;;;;;;;3.59;77.84;97472.78;5076261;28;19959;-81
2021/10/14 01:41:51;;;;;;;;;;;;;;;3.55;77.65;97470.59;5076596;28;19957;-79
2021/10/14 01:44:17;;;;;;;;;;;;;;;3.53;77.41;97469.94;5076630;28;19950;-79
2021/10/14 01:46:43;;;;;;;;;;;;;;;3.47;77.32;97461.00;5076128;28;20301;-79
2021/10/14 01:49:08;;;;;;;;;;;;;;;3.45;77.45;97458.53;5076176;28;19953;-79
2021/10/14 01:51:34;;;;;;;;;;;;;;;3.44;77.47;97456.91;5075941;28;20009;-77
2021/10/14 01:54:00;;;;;;;;;;;;;;;3.44;77.71;97456.91;5076021;28;19955;-79
2021/10/14 01:56:26;;;;;;;;;;;;;;;3.42;77.95;97461.44;5076175;28;19959;-79
2021/10/14 01:58:52;;;;;;;;;;;;;;;3.42;78.13;97458.84;5076125;28;20319;-79
2021/10/14 02:01:18;;;;;;;;;;;;;;;3.40;78.96;97472.91;5076012;28;19960;-79
2021/10/14 02:03:44;;;;;;;;;;;;;;;3.41;79.76;97469.34;5074918;28;19955;-78
2021/10/14 02:06:10;;;;;;;;;;;;;;;3.42;80.49;97469.22;5075916;28;20466;-80
2021/10/14 02:08:35;;;;;;;;;;;;;;;3.43;80.69;97465.66;5076180;28;19968;-78
2021/10/14 02:11:01;;;;;;;;;;;;;;;3.45;81.68;97478.47;5076027;28;19954;-80
2021/10/14 02:13:27;;;;;;;;;;;;;;;3.45;81.49;97475.88;5074477;28;19948;-81
2021/10/14 02:15:53;;;;;;;;;;;;;;;3.47;81.23;97470.56;5075811;28;19956;-81
2021/10/14 02:18:19;;;;;;;;;;;;;;;3.47;81.47;97471.34;5075727;28;20476;-80
2021/10/14 02:20:45;;;;;;;;;;;;;;;3.48;81.43;97477.34;5076054;28;20068;-80
2021/10/14 02:23:11;;;;;;;;;;;;;;;3.50;81.56;97470.25;5075587;28;20017;-80
2021/10/14 02:25:37;;;;;;;;;;;;;;;3.50;81.94;97467.66;5075590;28;19957;-80
2021/10/14 02:28:02;;;;;;;;;;;;;;;3.49;81.68;97473.81;5075568;28;19971;-80
2021/10/14 02:30:28;;;;;;;;;;;;;;;3.49;81.43;97468.63;5075182;28;20443;-79
2021/10/14 02:32:54;;;;;;;;;;;;;;;3.49;80.94;97461.66;5075413;28;19953;-79
2021/10/14 02:35:20;;;;;;;;;;;;;;;3.47;80.63;97458.41;5075139;28;19962;-80
2021/10/14 02:37:46;;;;;;;;;;;;;;;3.47;80.40;97462.78;5075250;28;20305;-80
2021/10/14 02:40:12;;;;;;;;;;;;;;;3.46;80.02;97461.94;5075109;28;20002;-80
2021/10/14 02:42:38;;;;;;;;;;;;;;;3.45;79.86;97461.13;5075414;28;20458;-79
2021/10/14 02:45:04;;;;;;;;;;;;;;;3.44;79.37;97449.13;5075348;28;20310;-79
2021/10/14 02:47:30;;;;;;;;;;;;;;;3.42;79.31;97455.41;5074810;28;20323;-80
2021/10/14 02:49:56;;;;;;;;;;;;;;;3.42;79.26;97463.19;5075224;28;19951;-80
2021/10/14 02:52:22;;;;;;;;;;;;;;;3.39;79.11;97459.13;5074835;28;20444;-81
2021/10/14 02:54:48;;;;;;;;;;;;;;;3.38;79.24;97464.44;5074814;28;20329;-81
2021/10/14 02:57:14;;;;;;;;;;;;;;;3.38;78.88;97467.03;5075173;28;19969;-81
2021/10/14 02:59:39;;;;;;;;;;;;;;;3.36;78.97;97466.38;5074749;28;20042;-81
2021/10/14 03:02:05;;;;;;;;;;;;;;;3.33;78.92;97467.50;5074605;28;20041;-81
2021/10/14 03:04:31;;;;;;;;;;;;;;;3.30;78.66;97472.97;5074689;28;19956;-81
2021/10/14 03:06:57;;;;;;;;;;;;;;;3.30;78.81;97470.38;5074454;28;19970;-81
2021/10/14 03:09:23;;;;;;;;;;;;;;;3.28;78.82;97466.31;5074581;28;19950;-81
2021/10/14 03:11:49;;;;;;;;;;;;;;;3.25;78.66;97468.25;5074527;28;19959;-81
2021/10/14 03:14:15;;;;;;;;;;;;;;;3.25;78.83;97473.44;5074385;28;19954;-81
2021/10/14 03:16:40;;;;;;;;;;;;;;;3.25;78.73;97472.59;5074837;28;19994;-81
2021/10/14 03:19:06;;;;;;;;;;;;;;;3.21;78.48;97472.09;5074341;28;20398;-81
2021/10/14 03:21:32;;;;;;;;;;;;;;;3.21;78.49;97473.84;5074194;28;20366;-81
2021/10/14 03:23:58;;;;;;;;;;;;;;;3.19;78.32;97470.56;5074393;28;19954;-81
2021/10/14 03:26:24;;;;;;;;;;;;;;;3.18;78.56;97474.13;5074525;28;19998;-81
2021/10/14 03:28:50;;;;;;;;;;;;;;;3.16;78.25;97478.66;5074205;28;20398;-81
2021/10/14 03:31:16;;;;;;;;;;;;;;;3.14;78.13;97480.56;5074407;28;20305;-80
2021/10/14 03:33:42;;;;;;;;;;;;;;;3.12;78.34;97479.91;5074156;28;19949;-82
2021/10/14 03:36:08;;;;;;;;;;;;;;;3.10;78.09;97479.22;5074435;28;20319;-82
2021/10/14 03:38:34;;;;;;;;;;;;;;;3.09;77.96;97475.00;5073910;28;20012;-80
2021/10/14 03:40:59;;;;;;;;;;;;;;;3.07;77.98;97482.09;5074751;28;20039;-81
2021/10/14 03:43:25;;;;;;;;;;;;;;;3.03;77.88;97479.00;5073041;28;19953;-80
2021/10/14 03:45:51;;;;;;;;;;;;;;;2.99;77.74;97480.25;5074069;28;19949;-81
2021/10/14 03:48:17;;;;;;;;;;;;;;;2.97;78.09;97488.16;5073673;28;20019;-81
2021/10/14 03:50:43;;;;;;;;;;;;;;;2.96;78.30;97483.13;5074001;28;19962;-81
2021/10/14 03:53:09;;;;;;;;;;;;;;;2.92;78.37;97485.19;5073563;28;20445;-80
2021/10/14 03:55:35;;;;;;;;;;;;;;;2.91;78.49;97482.75;5073971;28;20322;-80
2021/10/14 03:58:02;;;;;;;;;;;;;;;2.90;78.77;97492.28;5074102;28;19945;-80
2021/10/14 04:00:27;;;;;;;;;;;;;;;2.88;79.02;97488.19;5073594;28;19944;-80
2021/10/14 04:02:53;;;;;;;;;;;;;;;2.87;78.80;97484.00;5073862;28;19979;-80
2021/10/14 04:05:19;;;;;;;;;;;;;;;2.85;78.55;97491.91;5073646;28;20047;-80
2021/10/14 04:07:45;;;;;;;;;;;;;;;2.80;78.82;97486.34;5073737;28;20425;-80
2021/10/14 04:10:11;;;;;;;;;;;;;;;2.76;78.68;97488.38;5073546;28;19958;-80
2021/10/14 04:12:37;;;;;;;;;;;;;;;2.74;78.25;97484.31;5073789;28;20488;-80
2021/10/14 04:15:03;;;;;;;;;;;;;;;2.73;78.30;97487.84;5072685;28;19954;-80
2021/10/14 04:17:29;;;;;;;;;;;;;;;2.73;78.15;97482.66;5073878;28;19953;-80
2021/10/14 04:19:55;;;;;;;;;;;;;;;2.71;78.06;97485.44;5073311;28;19980;-80
2021/10/14 04:22:21;;;;;;;;;;;;;;;2.72;77.98;97496.59;5073644;28;19952;-81
2021/10/14 04:24:48;;;;;;;;;;;;;;;2.70;78.19;97498.50;5073546;28;19958;-81
2021/10/14 04:27:16;;;;;;;;;;;;;;;2.68;78.13;97501.22;5073024;28;19966;-81
2021/10/14 04:29:42;;;;;;;;;;;;;;;2.67;78.16;97502.22;5073546;28;19956;-81
2021/10/14 04:32:09;;;;;;;;;;;;;;;2.66;77.99;97499.75;5073429;28;19950;-81
2021/10/14 04:34:35;;;;;;;;;;;;;;;2.64;78.16;97507.66;5073711;28;19949;-81
2021/10/14 04:37:02;;;;;;;;;;;;;;;2.62;78.30;97514.75;5073593;28;19956;-81
2021/10/14 04:39:28;;;;;;;;;;;;;;;2.60;78.48;97516.66;5073282;28;19961;-81
2021/10/14 04:41:54;;;;;;;;;;;;;;;2.60;78.80;97509.72;5073585;28;19956;-81
2021/10/14 04:44:20;;;;;;;;;;;;;;;2.59;79.03;97509.88;5073498;28;19952;-81
2021/10/14 04:46:45;;;;;;;;;;;;;;;2.59;79.30;97507.28;5073333;28;20336;-81
2021/10/14 04:49:11;;;;;;;;;;;;;;;2.60;79.36;97514.06;5072909;28;20056;-80
2021/10/14 04:51:37;;;;;;;;;;;;;;;2.61;79.40;97518.31;5073461;28;19981;-80
2021/10/14 04:54:03;;;;;;;;;;;;;;;2.57;79.74;97517.78;5072893;28;20424;-80
2021/10/14 04:56:29;;;;;;;;;;;;;;;2.55;79.92;97511.09;5073285;28;20388;-80
2021/10/14 04:58:55;;;;;;;;;;;;;;;2.54;79.70;97507.69;5073471;28;20413;-81
2021/10/14 05:01:21;;;;;;;;;;;;;;;2.53;79.64;97513.81;5073131;28;19999;-79
2021/10/14 05:03:47;;;;;;;;;;;;;;;2.52;79.44;97509.63;5073184;28;19957;-80
2021/10/14 05:06:13;;;;;;;;;;;;;;;2.51;79.28;97518.31;5071962;28;20306;-80
2021/10/14 05:08:39;;;;;;;;;;;;;;;2.47;79.41;97516.16;5073178;28;20013;-81
2021/10/14 05:11:14;;;;;;;;;;;;;;;2.46;79.32;97517.94;5073160;28;20287;-81
2021/10/14 05:13:40;;;;;;;;;;;;;;;2.46;79.25;97517.09;5062526;28;19953;-81
2021/10/14 05:16:06;;;;;;;;;;;;;;;2.42;79.20;97507.03;5072991;28;20291;-81
2021/10/14 05:18:32;;;;;;;;;;;;;;;2.40;79.30;97510.72;5072940;28;19947;-81
2021/10/14 05:20:58;;;;;;;;;;;;;;;2.36;79.53;97512.78;5072756;28;19953;-80
2021/10/14 05:23:25;;;;;;;;;;;;;;;2.34;79.77;97512.09;5073280;28;19943;-81
2021/10/14 05:25:51;;;;;;;;;;;;;;;2.35;79.97;97516.34;5073252;28;19951;-79
2021/10/14 05:28:16;;;;;;;;;;;;;;;2.35;80.27;97505.13;5072886;28;20005;-80
2021/10/14 05:30:43;;;;;;;;;;;;;;;2.38;80.09;97510.88;5073214;28;20030;-79
2021/10/14 05:33:08;;;;;;;;;;;;;;;2.38;79.51;97510.06;5073271;28;19979;-79
2021/10/14 05:35:34;;;;;;;;;;;;;;;2.36;79.72;97511.97;5072706;28;20422;-81
2021/10/14 05:38:01;;;;;;;;;;;;;;;2.37;79.69;97505.81;5074322;28;19954;-80
2021/10/14 05:40:27;;;;;;;;;;;;;;;2.38;79.52;97505.69;5076211;28;19952;-81
2021/10/14 05:42:53;;;;;;;;;;;;;;;2.40;79.56;97505.56;5076217;28;19958;-80
2021/10/14 05:45:20;;;;;;;;;;;;;;;2.39;79.51;97506.50;5076148;28;20003;-81
2021/10/14 05:47:46;;;;;;;;;;;;;;;2.38;80.08;97504.88;5076417;28;20431;-80
2021/10/14 05:50:12;;;;;;;;;;;;;;;2.38;79.77;97504.88;5075352;28;19956;-80
2021/10/14 05:52:38;;;;;;;;;;;;;;;2.40;80.07;97505.56;5076107;28;20428;-80
2021/10/14 05:55:04;;;;;;;;;;;;;;;2.42;79.81;97501.88;5076200;28;19948;-79
2021/10/14 05:57:29;;;;;;;;;;;;;;;2.46;79.69;97496.38;5076011;28;19956;-80
2021/10/14 05:59:56;;;;;;;;;;;;;;;2.46;79.66;97496.38;5076032;28;20440;-85
2021/10/14 06:02:22;;;;;;;;;;;;;;;2.49;79.98;97501.31;5075799;28;19980;-80
2021/10/14 06:04:48;;;;;;;;;;;;;;;2.52;80.02;97507.03;5076110;28;20036;-80
2021/10/14 06:07:14;;;;;;;;;;;;;;;2.55;80.31;97509.31;5075571;28;20404;-80
2021/10/14 06:09:40;;;;;;;;;;;;;;;2.61;80.29;97506.16;5075608;28;20001;-80
2021/10/14 06:12:06;;;;;;;;;;;;;;;2.66;80.31;97504.94;5075460;28;19952;-80
2021/10/14 06:14:32;;;;;;;;;;;;;;;2.68;79.94;97490.88;5076367;28;19986;-81
2021/10/14 06:16:58;;;;;;;;;;;;;;;2.73;80.30;97500.81;5075643;28;20028;-81
2021/10/14 06:19:24;;;;;;;;;;;;;;;2.77;80.54;97496.97;5074497;28;19955;-80
2021/10/14 06:21:50;;;;;;;;;;;;;;;2.80;80.42;97500.09;5075555;28;19950;-80
2021/10/14 06:24:16;;;;;;;;;;;;;;;2.81;80.28;97498.31;5075576;28;19950;-81
2021/10/14 06:26:42;;;;;;;;;;;;;;;2.87;80.13;97500.34;5075391;28;19988;-81
2021/10/14 06:29:08;;;;;;;;;;;;;;;2.96;79.91;97499.50;5075359;28;19969;-81
2021/10/14 06:31:33;;;;;;;;;;;;;;;3.03;79.70;97497.94;5075831;28;19996;-81
2021/10/14 06:33:59;;;;;;;;;;;;;;;3.08;79.38;97499.28;5075664;28;19975;-80
2021/10/14 06:36:25;;;;;;;;;;;;;;;3.12;79.32;97503.22;5075252;28;19957;-81
2021/10/14 06:38:51;;;;;;;;;;;;;;;3.17;79.24;97507.03;5075149;28;20024;-81
2021/10/14 06:41:17;;;;;;;;;;;;;;;3.23;79.23;97503.03;5075348;28;19949;-80
2021/10/14 06:43:43;;;;;;;;;;;;;;;3.29;79.60;97507.63;5075337;28;19949;-79
2021/10/14 06:46:09;;;;;;;;;;;;;;;3.37;79.34;97501.72;5075531;28;19982;-79
2021/10/14 06:48:35;;;;;;;;;;;;;;;3.35;78.85;97501.06;5075174;28;19970;-80
2021/10/14 06:51:01;;;;;;;;;;;;;;;3.29;79.38;97499.84;5074774;28;19956;-80
2021/10/14 06:53:27;;;;;;;;;;;;;;;3.30;79.43;97498.91;5075019;28;19987;-80
2021/10/14 06:55:53;;;;;;;;;;;;;;;3.39;79.29;97497.22;5074819;28;19956;-80
2021/10/14 06:58:19;;;;;;;;;;;;;;;3.49;79.36;97497.97;5074910;28;19960;-80
2021/10/14 07:00:45;;;;;;;;;;;;;;;3.61;78.71;97488.16;5073857;28;20035;-80
2021/10/14 07:03:11;;;;;;;;;;;;;;;3.63;78.60;97486.25;5075158;28;19951;-79
2021/10/14 07:05:37;;;;;;;;;;;;;;;3.63;78.49;97501.81;5074912;28;20398;-79
2021/10/14 07:08:03;;;;;;;;;;;;;;;3.56;78.70;97501.59;5074548;28;19974;-80
2021/10/14 07:10:29;;;;;;;;;;;;;;;3.53;78.93;97499.31;5074786;28;20314;-79
2021/10/14 07:12:55;;;;;;;;;;;;;;;3.62;79.80;97502.78;5074880;28;19961;-79
2021/10/14 07:15:21;;;;;;;;;;;;;;;3.86;78.95;97504.78;5074229;28;20313;-79
2021/10/14 07:17:47;;;;;;;;;;;;;;;4.07;78.28;97505.28;5074328;28;19956;-79
2021/10/14 07:20:13;;;;;;;;;;;;;;;4.16;78.11;97503.56;5074719;28;19970;-79
2021/10/14 07:22:38;;;;;;;;;;;;;;;4.32;78.26;97502.84;5074281;28;19958;-79
2021/10/14 07:25:05;;;;;;;;;;;;;;;4.61;78.29;97512.13;5074138;28;20054;-79
2021/10/14 07:27:31;;;;;;;;;;;;;;;4.96;77.33;97511.19;5074036;28;19974;-79
2021/10/14 07:29:58;;;;;;;;;;;;;;;5.08;75.31;97511.69;5074282;28;20395;-79
2021/10/14 07:32:23;;;;;;;;;;;;;;;5.00;75.55;97512.50;5074266;28;20323;-79
2021/10/14 07:34:49;;;;;;;;;;;;;;;4.93;75.40;97515.88;5074136;28;19963;-79
2021/10/14 07:37:19;;;;;;;;;;;;;;;4.97;75.73;97514.59;5073947;28;19948;-79
2021/10/14 07:39:45;;;;;;;;;;;;;;;5.16;75.36;97523.94;5073926;28;19962;-79
2021/10/14 07:42:11;;;;;;;;;;;;;;;5.19;75.66;97527.03;5074608;28;20301;-79
2021/10/14 07:44:38;;;;;;;;;;;;;;;5.19;75.48;97529.63;5073975;28;19999;-79
2021/10/14 07:47:05;;;;;;;;;;;;;;;5.12;74.99;97535.59;5074266;28;19955;-79
2021/10/14 07:49:31;;;;;;;;;;;;;;;4.97;75.80;97528.38;5073876;28;19972;-79
2021/10/14 07:51:57;;;;;;;;;;;;;;;4.91;77.22;97541.19;5073912;28;19976;-79
2021/10/14 07:54:23;;;;;;;;;;;;;;;4.93;77.02;97540.06;5074189;28;19969;-79
2021/10/14 07:56:49;;;;;;;;;;;;;;;4.92;76.92;97541.06;5073899;28;20360;-79
2021/10/14 07:59:15;;;;;;;;;;;;;;;4.84;76.88;97536.63;5074199;28;19955;-79
2021/10/14 08:01:41;;;;;;;;;;;;;;;4.76;78.03;97533.16;5072905;28;20462;-79
2021/10/14 08:04:08;;;;;;;;;;;;;;;4.75;77.51;97534.16;5073568;28;19956;-80
2021/10/14 08:06:35;;;;;;;;;;;;;;;4.81;78.31;97541.34;5073964;28;19960;-82
2021/10/14 08:09:02;;;;;;;;;;;;;;;4.86;77.64;97536.47;5073566;28;20033;-79
2021/10/14 08:11:28;;;;;;;;;;;;;;;4.98;77.29;97534.44;5073695;28;19955;-79
2021/10/14 08:13:54;;;;;;;;;;;;;;;5.20;77.11;97540.84;5072543;28;19952;-79
2021/10/14 08:16:20;;;;;;;;;;;;;;;5.49;76.58;97533.47;5073519;28;20024;-78
2021/10/14 08:18:46;;;;;;;;;;;;;;;5.68;75.18;97521.94;5073641;28;19955;-79
2021/10/14 08:21:12;;;;;;;;;;;;;;;5.87;75.12;97525.25;5073316;28;20317;-79
2021/10/14 08:23:38;;;;;;;;;;;;;;;6.14;75.31;97533.75;5073425;28;19967;-79
2021/10/14 08:26:04;;;;;;;;;;;;;;;6.43;74.20;97528.03;5073352;28;20411;-79
2021/10/14 08:28:30;;;;;;;;;;;;;;;6.60;72.65;97527.03;5073403;28;20050;-79
2021/10/14 08:30:56;;;;;;;;;;;;;;;6.61;73.33;97530.44;5073400;28;20327;-79
2021/10/14 08:33:22;;;;;;;;;;;;;;;6.50;73.85;97535.03;5073541;28;20405;-79
2021/10/14 08:35:48;;;;;;;;;;;;;;;6.40;73.77;97525.75;5073443;28;19955;-79
2021/10/14 08:38:14;;;;;;;;;;;;;;;6.39;74.12;97535.38;5073527;28;20050;-79
2021/10/14 08:40:40;;;;;;;;;;;;;;;6.45;74.95;97526.09;5073230;28;19961;-78
2021/10/14 08:43:09;;;;;;;;;;;;;;;6.48;73.54;97528.34;5073572;28;20321;-78
2021/10/14 08:45:36;;;;;;;;;;;;;;;6.50;74.02;97523.78;5073260;28;19950;-76
2021/10/14 08:48:03;;;;;;;;;;;;;;;6.57;74.34;97524.75;5073115;28;20424;-78
2021/10/14 08:50:29;;;;;;;;;;;;;;;6.56;74.46;97520.53;5073618;28;19965;-77
2021/10/14 08:52:55;;;;;;;;;;;;;;;6.68;74.89;97518.41;5073252;28;19976;-78
2021/10/14 08:55:21;;;;;;;;;;;;;;;6.77;73.83;97513.97;5072404;28;19966;-78
2021/10/14 08:57:47;;;;;;;;;;;;;;;6.83;74.03;97513.31;5073086;28;19954;-78
2021/10/14 09:00:13;;;;;;;;;;;;;;;6.91;74.22;97514.09;5073386;28;19945;-78
2021/10/14 09:02:40;;;;;;;;;;;;;;;7.01;74.65;97513.06;5073235;28;19954;-78
2021/10/14 09:05:09;;;;;;;;;;;;;;;7.08;74.66;97514.03;5073078;28;19959;-78
2021/10/14 09:07:35;;;;;;;;;;;;;;;7.18;74.17;97509.44;5072926;28;19948;-78
2021/10/14 09:10:05;;;;;;;;;;;;;;;7.23;74.10;97507.13;5072874;28;20426;-78
2021/10/14 09:12:32;;;;;;;;;;;;;;;7.31;74.43;97514.09;5074349;28;19949;-78
2021/10/14 09:14:58;;;;;;;;;;;;;;;7.39;74.69;97511.44;5076990;28;19954;-78
2021/10/14 09:17:45;;;;;;;;;;;;;;;7.46;75.06;97501.94;5076871;28;20008;-79
2021/10/14 09:20:29;;;;;;;;;;;;;;;7.60;74.81;97504.78;5073096;28;19964;-78
2021/10/14 09:22:55;;;;;;;;;;;;;;;7.67;74.43;97490.88;5067916;28;19976;-78
2021/10/14 09:25:32;;;;;;;;;;;;;;;7.74;74.29;97496.22;5076827;28;19952;-78
2021/10/14 09:28:05;;;;;;;;;;;;;;;7.77;74.41;97495.03;5076543;28;19951;-78
2021/10/14 09:30:32;;;;;;;;;;;;;;;7.85;73.86;97485.38;5076619;28;19949;-78
2021/10/14 09:32:57;;;;;;;;;;;;;;;7.95;74.26;97486.94;5076383;28;19960;-78
2021/10/14 09:35:24;;;;;;;;;;;;;;;8.18;82.65;97486.91;5076747;28;19958;-77
2021/10/14 09:37:50;;;;;;;;;;;;;;;8.65;85.90;97476.19;5076358;28;19959;-78
2021/10/14 09:40:16;;;;;;;;;;;;;;;8.91;73.12;97475.72;5076520;28;20357;-78
2021/10/14 09:42:44;;;;;;;;;;;;;;;8.96;72.72;97485.63;5076175;28;20348;-79
2021/10/14 09:45:26;;;;;;;;;;;;;;;8.90;72.19;97475.91;5076284;28;19966;-78
2021/10/14 09:48:04;;;;;;;;;;;;;;;8.84;71.32;97480.06;5076190;28;19957;-78
2021/10/14 09:50:30;;;;;;;;;;;;;;;8.87;73.27;97484.94;5076218;28;20342;-78
2021/10/14 09:53:00;;;;;;;;;;;;;;;8.98;73.43;97486.28;5076054;28;19981;-79
2021/10/14 09:55:26;;;;;;;;;;;;;;;9.08;71.94;97481.56;5075986;28;19958;-78
2021/10/14 09:57:55;;;;;;;;;;;;;;;9.12;72.37;97485.44;5076062;28;19950;-78
2021/10/14 10:00:22;;;;;;;;;;;;;;;9.22;72.40;97487.78;5076098;28;20316;-78
2021/10/14 10:02:50;;;;;;;;;;;;;;;9.34;72.04;97482.88;5076275;28;19959;-78
2021/10/14 10:05:16;;;;;;;;;;;;;;;9.46;71.80;97476.16;5075857;28;19952;-78
2021/10/14 10:07:43;;;;;;;;;;;;;;;9.55;69.28;97471.63;5075949;28;19955;-78
2021/10/14 10:10:11;;;;;;;;;;;;;;;9.55;69.71;97471.63;5075520;28;19966;-79
2021/10/14 10:12:38;;;;;;;;;;;;;;;9.60;69.13;97460.59;5075837;28;19955;-78
2021/10/14 10:15:04;;;;;;;;;;;;;;;9.69;70.18;97459.47;5076112;28;19959;-79
2021/10/14 10:17:37;;;;;;;;;;;;;;;9.84;70.35;97460.22;5075699;28;19953;-79
2021/10/14 10:20:04;;;;;;;;;;;;;;;9.98;68.63;97455.09;5075507;28;19959;-79
2021/10/14 10:22:32;;;;;;;;;;;;;;;10.05;67.93;97445.47;5075514;28;19985;-79
2021/10/14 10:25:17;;;;;;;;;;;;;;;10.09;65.60;97429.19;5074681;28;20317;-79
2021/10/14 10:27:44;;;;;;;;;;;;;;;10.20;68.58;97450.63;5075758;28;19960;-79
2021/10/14 10:30:11;;;;;;;;;;;;;;;10.33;68.44;97443.72;5075417;28;19971;-79
2021/10/14 10:32:45;;;;;;;;;;;;;;;10.39;64.93;97415.91;5075347;28;20444;-80
2021/10/14 10:35:31;;;;;;;;;;;;;;;10.47;67.07;97441.97;5075665;28;19974;-79
2021/10/14 10:38:11;;;;;;;;;;;;;;;10.63;65.40;97434.81;5075217;28;19955;-79
2021/10/14 10:40:40;;;;;;;;;;;;;;;10.71;64.44;97421.53;5075353;28;19962;-79
2021/10/14 10:43:05;;;;;;;;;;;;;;;10.81;65.64;97431.66;5075186;28;19954;-79
2021/10/14 10:45:43;;;;;;;;;;;;;;;10.90;64.27;97412.13;5075355;28;19965;-79
2021/10/14 10:48:10;;;;;;;;;;;;;;;11.06;62.75;97403.09;5062678;28;19961;-78
2021/10/14 10:50:35;;;;;;;;;;;;;;;11.14;63.09;97401.09;5075049;28;19961;-79
2021/10/14 10:53:02;;;;;;;;;;;;;;;11.35;66.23;97423.78;5075165;28;19980;-79
2021/10/14 10:55:28;;;;;;;;;;;;;;;11.60;65.60;97425.06;5075019;28;19955;-77
2021/10/14 10:57:55;;;;;;;;;;;;;;;11.84;63.23;97394.75;5075037;28;20016;-77
2021/10/14 11:00:22;;;;;;;;;;;;;;;11.99;59.79;97369.09;5074116;28;19958;-77
2021/10/14 11:03:06;;;;;;;;;;;;;;;12.17;61.75;97382.41;5074802;28;20011;-77
2021/10/14 11:05:43;;;;;;;;;;;;;;;12.31;60.98;97371.88;5074644;28;19955;-77
2021/10/14 11:08:09;;;;;;;;;;;;;;;12.45;58.07;97344.53;5074835;28;20337;-77
2021/10/14 11:10:35;;;;;;;;;;;;;;;12.64;60.38;97369.16;5074474;28;19981;-77
2021/10/14 11:13:01;;;;;;;;;;;;;;;12.81;59.69;97353.69;5074636;28;19955;-77
2021/10/14 11:15:27;;;;;;;;;;;;;;;12.87;57.26;97333.59;5074400;28;19955;-77
2021/10/14 11:18:03;;;;;;;;;;;;;;;12.88;54.50;97308.91;5074626;28;19954;-77
2021/10/14 11:20:29;;;;;;;;;;;;;;;12.86;54.16;97289.88;5074223;28;19971;-77
2021/10/14 11:23:07;;;;;;;;;;;;;;;12.80;57.16;97329.19;5074295;28;19960;-77
2021/10/14 11:25:34;;;;;;;;;;;;;;;12.79;56.25;97327.56;5064899;28;19966;-77
2021/10/14 11:28:05;;;;;;;;;;;;;;;12.84;57.40;97347.19;5074135;28;19960;-78
2021/10/14 11:30:42;;;;;;;;;;;;;;;12.99;59.78;97361.69;5073066;28;19979;-77
2021/10/14 11:33:11;;;;;;;;;;;;;;;13.12;54.60;97312.59;5074103;28;19954;-77
2021/10/14 11:35:38;;;;;;;;;;;;;;;13.11;56.06;97334.72;5074125;28;19956;-77
2021/10/14 11:38:08;;;;;;;;;;;;;;;13.18;57.29;97330.19;5074087;28;19978;-77
2021/10/14 11:40:34;;;;;;;;;;;;;;;13.24;55.01;97316.19;5073864;28;19967;-77
2021/10/14 11:43:00;;;;;;;;;;;;;;;13.27;54.56;97310.50;5073874;28;19955;-78
2021/10/14 11:45:26;;;;;;;;;;;;;;;13.25;54.09;97316.97;5074114;28;20308;-78
2021/10/14 11:47:52;;;;;;;;;;;;;;;13.16;54.52;97314.59;5074456;28;19967;-77
2021/10/14 11:50:23;;;;;;;;;;;;;;;13.20;56.24;97323.69;5073846;28;19974;-78
2021/10/14 11:52:59;;;;;;;;;;;;;;;13.25;55.75;97324.88;5073650;28;19977;-78
2021/10/14 11:55:25;;;;;;;;;;;;;;;13.25;53.10;97303.81;5074088;28;19956;-77
2021/10/14 11:57:51;;;;;;;;;;;;;;;13.23;52.38;97309.31;5073297;28;19966;-77
2021/10/14 12:00:17;;;;;;;;;;;;;;;13.13;52.63;97324.75;5073813;28;19958;-77
2021/10/14 12:02:43;;;;;;;;;;;;;;;13.14;54.84;97344.81;5073662;28;19955;-78
2021/10/14 12:05:10;;;;;;;;;;;;;;;13.23;56.36;97345.34;5073878;28;19967;-77
2021/10/14 12:07:36;;;;;;;;;;;;;;;13.26;53.86;97327.31;5073644;28;19957;-78
2021/10/14 12:10:02;;;;;;;;;;;;;;;13.16;54.56;97338.28;5073736;28;19964;-77
2021/10/14 12:12:29;;;;;;;;;;;;;;;13.16;54.93;97333.03;5073460;28;19962;-78
2021/10/14 12:14:59;;;;;;;;;;;;;;;13.20;55.08;97328.94;5073545;28;19957;-77
2021/10/14 12:17:35;;;;;;;;;;;;;;;13.18;52.81;97312.56;5073761;28;19954;-77
2021/10/14 12:20:08;;;;;;;;;;;;;;;13.10;53.83;97323.38;5073892;28;19956;-77
2021/10/14 12:22:38;;;;;;;;;;;;;;;13.03;55.01;97329.69;5073673;28;20025;-77
2021/10/14 12:25:05;;;;;;;;;;;;;;;13.06;54.27;97327.44;5073326;28;19960;-78
2021/10/14 12:27:41;;;;;;;;;;;;;;;13.14;53.41;97308.72;5073459;28;19954;-77
2021/10/14 12:30:24;;;;;;;;;;;;;;;13.18;54.97;97319.66;5073445;28;19984;-77
2021/10/14 12:32:51;;;;;;;;;;;;;;;13.20;50.14;97291.28;5071658;28;19954;-78
2021/10/14 12:35:17;;;;;;;;;;;;;;;13.18;52.28;97296.75;5073492;28;19948;-77
2021/10/14 12:37:43;;;;;;;;;;;;;;;13.21;53.40;97308.72;5073306;28;20473;-78
2021/10/14 12:40:19;;;;;;;;;;;;;;;13.32;57.10;97315.16;5073677;28;19958;-78
2021/10/14 12:45:26;;;;;;;;;;;;;;;13.33;55.14;97309.69;5073355;28;20312;-78
2021/10/14 12:47:54;;;;;;;;;;;;;;;13.40;53.10;97293.81;5074927;28;20438;-78
2021/10/14 12:53:14;;;;;;;;;;;;;;;13.70;54.49;97303.69;5077286;28;19978;-78
2021/10/14 12:55:56;;;;;;;;;;;;;;;13.80;54.63;97304.81;5077331;28;20418;-77
2021/10/14 12:58:22;;;;;;;;;;;;;;;13.90;53.55;97295.59;5077203;28;19958;-78
2021/10/14 13:01:02;;;;;;;;;;;;;;;14.00;55.16;97298.53;5077334;28;19961;-77